sensor_id;sensor_type;location;lat;lon;timestamp;P1;durP1;ratioP1;P2;durP2;ratioP2
62110;SDS011;48102;47.526;19.072;2022-11-15T04:45:42;7.30;;;5.87;;
62110;SDS011;48102;47.526;19.072;2022-11-15T04:49:04;10.05;;;7.15;;
62110;SDS011;48102;47.526;19.072;2022-11-15T04:52:25;8.18;;;6.80;;
62110;SDS011;48102;47.526;19.072;2022-11-15T04:55:46;9.48;;;7.07;;
62110;SDS011;48102;47.526;19.072;2022-11-15T04:59:08;10.68;;;6.93;;
62110;SDS011;48102;47.526;19.072;2022-11-15T05:02:29;10.52;;;6.57;;
62110;SDS011;48102;47.526;19.072;2022-11-15T05:06:10;5.87;;;5.20;;
62110;SDS011;48102;47.526;19.072;2022-11-15T05:09:31;7.22;;;5.53;;
62110;SDS011;48102;47.526;19.072;2022-11-15T05:12:52;8.45;;;6.40;;
62110;SDS011;48102;47.526;19.072;2022-11-15T05:16:13;9.20;;;6.53;;
62110;SDS011;48102;47.526;19.072;2022-11-15T05:19:34;11.40;;;7.28;;
62110;SDS011;48102;47.526;19.072;2022-11-15T05:22:56;10.40;;;6.82;;
62110;SDS011;48102;47.526;19.072;2022-11-15T05:26:17;8.35;;;6.35;;
62110;SDS011;48102;47.526;19.072;2022-11-15T05:29:39;10.57;;;6.75;;
62110;SDS011;48102;47.526;19.072;2022-11-15T05:33:00;9.93;;;8.43;;
62110;SDS011;48102;47.526;19.072;2022-11-15T05:39:48;9.45;;;6.97;;
62110;SDS011;48102;47.526;19.072;2022-11-15T05:43:09;9.75;;;7.05;;
62110;SDS011;48102;47.526;19.072;2022-11-15T05:46:31;10.20;;;8.43;;
62110;SDS011;48102;47.526;19.072;2022-11-15T05:49:54;9.27;;;7.07;;
62110;SDS011;48102;47.526;19.072;2022-11-15T05:53:16;11.27;;;6.90;;
62110;SDS011;48102;47.526;19.072;2022-11-15T05:56:40;9.80;;;7.20;;
62110;SDS011;48102;47.526;19.072;2022-11-15T06:00:02;9.38;;;7.40;;
62110;SDS011;48102;47.526;19.072;2022-11-15T06:03:31;9.45;;;7.18;;
62110;SDS011;48102;47.526;19.072;2022-11-15T06:06:53;13.65;;;7.90;;
62110;SDS011;48102;47.526;19.072;2022-11-15T06:10:14;8.55;;;7.15;;
62110;SDS011;48102;47.526;19.072;2022-11-15T06:13:36;9.20;;;7.45;;
62110;SDS011;48102;47.526;19.072;2022-11-15T06:16:58;10.38;;;8.23;;
62110;SDS011;48102;47.526;19.072;2022-11-15T06:20:19;9.57;;;7.35;;
62110;SDS011;48102;47.526;19.072;2022-11-15T06:23:40;11.25;;;8.18;;
62110;SDS011;48102;47.526;19.072;2022-11-15T06:27:01;11.93;;;8.55;;
62110;SDS011;48102;47.526;19.072;2022-11-15T06:30:22;10.02;;;8.95;;
62110;SDS011;48102;47.526;19.072;2022-11-15T06:33:47;11.25;;;7.75;;
62110;SDS011;48102;47.526;19.072;2022-11-15T06:37:10;10.43;;;8.17;;
62110;SDS011;48102;47.526;19.072;2022-11-15T06:40:34;11.07;;;8.18;;
62110;SDS011;48102;47.526;19.072;2022-11-15T06:43:57;12.50;;;9.32;;
62110;SDS011;48102;47.526;19.072;2022-11-15T06:47:18;13.25;;;8.23;;
62110;SDS011;48102;47.526;19.072;2022-11-15T06:50:39;9.43;;;7.82;;
62110;SDS011;48102;47.526;19.072;2022-11-15T06:54:01;11.77;;;7.32;;
62110;SDS011;48102;47.526;19.072;2022-11-15T06:57:22;10.85;;;8.02;;
62110;SDS011;48102;47.526;19.072;2022-11-15T07:00:44;11.55;;;8.43;;
62110;SDS011;48102;47.526;19.072;2022-11-15T07:04:05;8.50;;;6.80;;
62110;SDS011;48102;47.526;19.072;2022-11-15T07:07:26;11.05;;;7.53;;
62110;SDS011;48102;47.526;19.072;2022-11-15T07:10:47;7.62;;;6.75;;
62110;SDS011;48102;47.526;19.072;2022-11-15T07:14:09;10.60;;;7.37;;
62110;SDS011;48102;47.526;19.072;2022-11-15T07:17:30;10.88;;;9.10;;
62110;SDS011;48102;47.526;19.072;2022-11-15T07:20:52;10.98;;;8.75;;
62110;SDS011;48102;47.526;19.072;2022-11-15T07:24:13;11.70;;;8.77;;
62110;SDS011;48102;47.526;19.072;2022-11-15T07:27:34;8.75;;;7.85;;
62110;SDS011;48102;47.526;19.072;2022-11-15T07:30:56;10.45;;;8.32;;
62110;SDS011;48102;47.526;19.072;2022-11-15T07:34:18;11.63;;;8.73;;
62110;SDS011;48102;47.526;19.072;2022-11-15T07:37:38;14.90;;;9.18;;
62110;SDS011;48102;47.526;19.072;2022-11-15T07:41:03;11.05;;;9.07;;
62110;SDS011;48102;47.526;19.072;2022-11-15T07:44:25;12.25;;;8.30;;
62110;SDS011;48102;47.526;19.072;2022-11-15T07:47:46;13.48;;;8.93;;
62110;SDS011;48102;47.526;19.072;2022-11-15T07:51:11;12.75;;;8.95;;
62110;SDS011;48102;47.526;19.072;2022-11-15T07:54:34;11.48;;;9.57;;
62110;SDS011;48102;47.526;19.072;2022-11-15T07:58:05;10.07;;;8.93;;
62110;SDS011;48102;47.526;19.072;2022-11-15T08:01:27;14.75;;;9.45;;
62110;SDS011;48102;47.526;19.072;2022-11-15T08:04:49;9.52;;;8.02;;
62110;SDS011;48102;47.526;19.072;2022-11-15T08:08:10;14.30;;;9.63;;
62110;SDS011;48102;47.526;19.072;2022-11-15T08:11:32;12.82;;;9.23;;
62110;SDS011;48102;47.526;19.072;2022-11-15T08:14:53;15.95;;;10.13;;
62110;SDS011;48102;47.526;19.072;2022-11-15T08:18:15;13.55;;;9.43;;
62110;SDS011;48102;47.526;19.072;2022-11-15T08:21:37;12.35;;;9.50;;
62110;SDS011;48102;47.526;19.072;2022-11-15T08:24:58;13.62;;;9.77;;
62110;SDS011;48102;47.526;19.072;2022-11-15T08:28:19;11.32;;;9.30;;
62110;SDS011;48102;47.526;19.072;2022-11-15T08:31:41;19.98;;;9.98;;
62110;SDS011;48102;47.526;19.072;2022-11-15T08:35:02;14.00;;;9.43;;
62110;SDS011;48102;47.526;19.072;2022-11-15T08:38:24;16.37;;;11.18;;
62110;SDS011;48102;47.526;19.072;2022-11-15T08:41:45;13.02;;;9.55;;
62110;SDS011;48102;47.526;19.072;2022-11-15T08:45:07;13.38;;;9.52;;
62110;SDS011;48102;47.526;19.072;2022-11-15T08:48:29;13.57;;;10.43;;
62110;SDS011;48102;47.526;19.072;2022-11-15T08:51:50;11.68;;;8.65;;
62110;SDS011;48102;47.526;19.072;2022-11-15T08:55:11;11.82;;;10.00;;
62110;SDS011;48102;47.526;19.072;2022-11-15T08:58:32;14.68;;;9.88;;
62110;SDS011;48102;47.526;19.072;2022-11-15T09:01:54;12.60;;;9.88;;
62110;SDS011;48102;47.526;19.072;2022-11-15T09:05:16;11.57;;;9.48;;
62110;SDS011;48102;47.526;19.072;2022-11-15T09:08:37;11.63;;;9.40;;
62110;SDS011;48102;47.526;19.072;2022-11-15T09:12:08;14.95;;;9.32;;
62110;SDS011;48102;47.526;19.072;2022-11-15T09:15:29;13.68;;;9.45;;
62110;SDS011;48102;47.526;19.072;2022-11-15T09:18:50;16.48;;;10.30;;
62110;SDS011;48102;47.526;19.072;2022-11-15T09:22:12;14.85;;;10.38;;
62110;SDS011;48102;47.526;19.072;2022-11-15T09:25:33;14.77;;;11.52;;
62110;SDS011;48102;47.526;19.072;2022-11-15T09:28:54;17.75;;;11.07;;
62110;SDS011;48102;47.526;19.072;2022-11-15T09:32:15;19.40;;;11.30;;
62110;SDS011;48102;47.526;19.072;2022-11-15T09:35:36;13.65;;;11.32;;
62110;SDS011;48102;47.526;19.072;2022-11-15T09:38:58;14.18;;;10.45;;
62110;SDS011;48102;47.526;19.072;2022-11-15T09:42:27;15.52;;;11.15;;
62110;SDS011;48102;47.526;19.072;2022-11-15T09:46:01;16.33;;;12.23;;
62110;SDS011;48102;47.526;19.072;2022-11-15T09:49:26;16.15;;;11.88;;
62110;SDS011;48102;47.526;19.072;2022-11-15T09:55:38;13.02;;;10.68;;
62110;SDS011;48102;47.526;19.072;2022-11-15T09:58:53;11.20;;;9.30;;
62110;SDS011;48102;47.526;19.072;2022-11-15T10:05:22;13.55;;;10.63;;
62110;SDS011;48102;47.526;19.072;2022-11-15T10:08:43;19.37;;;11.73;;
62110;SDS011;48102;47.526;19.072;2022-11-15T10:11:48;15.70;;;11.77;;
62110;SDS011;48102;47.526;19.072;2022-11-15T10:14:55;17.37;;;11.68;;
62110;SDS011;48102;47.526;19.072;2022-11-15T10:18:09;17.25;;;11.98;;
62110;SDS011;48102;47.526;19.072;2022-11-15T10:28:15;17.27;;;11.90;;
62110;SDS011;48102;47.526;19.072;2022-11-15T10:31:24;17.95;;;11.98;;
62110;SDS011;48102;47.526;19.072;2022-11-15T10:34:34;26.40;;;12.75;;
62110;SDS011;48102;47.526;19.072;2022-11-15T10:37:38;18.60;;;11.63;;
62110;SDS011;48102;47.526;19.072;2022-11-15T10:40:44;17.65;;;12.02;;
62110;SDS011;48102;47.526;19.072;2022-11-15T10:44:01;17.15;;;11.63;;
62110;SDS011;48102;47.526;19.072;2022-11-15T10:47:23;17.02;;;12.55;;
62110;SDS011;48102;47.526;19.072;2022-11-15T10:50:31;13.95;;;11.75;;
62110;SDS011;48102;47.526;19.072;2022-11-15T10:53:43;18.10;;;12.50;;
62110;SDS011;48102;47.526;19.072;2022-11-15T10:56:51;20.30;;;12.57;;
62110;SDS011;48102;47.526;19.072;2022-11-15T11:00:01;17.52;;;12.40;;
62110;SDS011;48102;47.526;19.072;2022-11-15T11:06:47;16.55;;;11.85;;
62110;SDS011;48102;47.526;19.072;2022-11-15T11:10:02;15.07;;;10.65;;
62110;SDS011;48102;47.526;19.072;2022-11-15T11:13:28;21.07;;;11.87;;
62110;SDS011;48102;47.526;19.072;2022-11-15T11:16:42;14.50;;;11.27;;
62110;SDS011;48102;47.526;19.072;2022-11-15T11:23:32;14.35;;;10.85;;
62110;SDS011;48102;47.526;19.072;2022-11-15T11:30:24;15.30;;;11.65;;
62110;SDS011;48102;47.526;19.072;2022-11-15T11:40:35;13.95;;;11.43;;
62110;SDS011;48102;47.526;19.072;2022-11-15T11:44:02;12.73;;;10.63;;
62110;SDS011;48102;47.526;19.072;2022-11-15T11:47:23;19.08;;;12.18;;
62110;SDS011;48102;47.526;19.072;2022-11-15T11:50:31;15.75;;;11.88;;
62110;SDS011;48102;47.526;19.072;2022-11-15T11:53:39;14.87;;;11.98;;
62110;SDS011;48102;47.526;19.072;2022-11-15T11:56:48;14.32;;;10.60;;
62110;SDS011;48102;47.526;19.072;2022-11-15T12:00:00;16.83;;;12.10;;
62110;SDS011;48102;47.526;19.072;2022-11-15T12:03:34;15.52;;;12.52;;
62110;SDS011;48102;47.526;19.072;2022-11-15T12:06:47;20.92;;;11.27;;
62110;SDS011;48102;47.526;19.072;2022-11-15T12:13:42;13.23;;;10.93;;
62110;SDS011;48102;47.526;19.072;2022-11-15T12:16:47;15.38;;;11.10;;
62110;SDS011;48102;47.526;19.072;2022-11-15T12:19:51;12.93;;;9.95;;
62110;SDS011;48102;47.526;19.072;2022-11-15T12:23:15;14.27;;;10.75;;
62110;SDS011;48102;47.526;19.072;2022-11-15T12:26:37;15.35;;;11.15;;
62110;SDS011;48102;47.526;19.072;2022-11-15T12:29:45;15.18;;;10.32;;
62110;SDS011;48102;47.526;19.072;2022-11-15T12:32:55;12.63;;;10.77;;
62110;SDS011;48102;47.526;19.072;2022-11-15T12:36:10;16.37;;;11.40;;
62110;SDS011;48102;47.526;19.072;2022-11-15T12:43:33;20.12;;;11.70;;
62110;SDS011;48102;47.526;19.072;2022-11-15T12:49:44;16.70;;;12.25;;
62110;SDS011;48102;47.526;19.072;2022-11-15T12:56:29;19.50;;;14.07;;
62110;SDS011;48102;47.526;19.072;2022-11-15T12:59:50;19.77;;;13.43;;
62110;SDS011;48102;47.526;19.072;2022-11-15T13:03:16;27.50;;;15.27;;
62110;SDS011;48102;47.526;19.072;2022-11-15T13:06:55;19.90;;;15.23;;
62110;SDS011;48102;47.526;19.072;2022-11-15T13:09:50;32.40;;;17.42;;
62110;SDS011;48102;47.526;19.072;2022-11-15T13:13:02;23.67;;;15.32;;
62110;SDS011;48102;47.526;19.072;2022-11-15T13:16:11;22.25;;;15.85;;
62110;SDS011;48102;47.526;19.072;2022-11-15T13:19:22;19.98;;;15.02;;
62110;SDS011;48102;47.526;19.072;2022-11-15T13:22:27;18.77;;;15.02;;
62110;SDS011;48102;47.526;19.072;2022-11-15T13:29:19;20.10;;;14.68;;
62110;SDS011;48102;47.526;19.072;2022-11-15T13:32:22;20.45;;;15.27;;
62110;SDS011;48102;47.526;19.072;2022-11-15T13:35:26;21.33;;;15.35;;
62110;SDS011;48102;47.526;19.072;2022-11-15T13:38:32;19.42;;;14.27;;
62110;SDS011;48102;47.526;19.072;2022-11-15T13:41:37;21.25;;;14.55;;
62110;SDS011;48102;47.526;19.072;2022-11-15T13:44:56;20.33;;;12.75;;
62110;SDS011;48102;47.526;19.072;2022-11-15T13:48:02;21.95;;;14.73;;
62110;SDS011;48102;47.526;19.072;2022-11-15T13:51:08;18.80;;;12.90;;
62110;SDS011;48102;47.526;19.072;2022-11-15T13:54:29;15.48;;;12.13;;
62110;SDS011;48102;47.526;19.072;2022-11-15T13:57:39;17.73;;;13.43;;
62110;SDS011;48102;47.526;19.072;2022-11-15T14:00:46;17.87;;;12.82;;
62110;SDS011;48102;47.526;19.072;2022-11-15T14:03:59;15.27;;;11.65;;
62110;SDS011;48102;47.526;19.072;2022-11-15T14:07:03;19.62;;;12.55;;
62110;SDS011;48102;47.526;19.072;2022-11-15T14:10:17;17.48;;;12.43;;
62110;SDS011;48102;47.526;19.072;2022-11-15T14:13:40;15.60;;;11.63;;
62110;SDS011;48102;47.526;19.072;2022-11-15T14:16:44;17.40;;;11.50;;
62110;SDS011;48102;47.526;19.072;2022-11-15T14:19:50;19.15;;;11.65;;
62110;SDS011;48102;47.526;19.072;2022-11-15T14:22:55;18.67;;;11.15;;
62110;SDS011;48102;47.526;19.072;2022-11-15T14:26:00;16.27;;;11.10;;
62110;SDS011;48102;47.526;19.072;2022-11-15T14:32:45;17.35;;;11.02;;
62110;SDS011;48102;47.526;19.072;2022-11-15T14:35:50;13.73;;;11.38;;
62110;SDS011;48102;47.526;19.072;2022-11-15T14:38:54;15.00;;;12.13;;
62110;SDS011;48102;47.526;19.072;2022-11-15T14:41:57;19.77;;;12.93;;
62110;SDS011;48102;47.526;19.072;2022-11-15T14:44:59;16.58;;;12.07;;
62110;SDS011;48102;47.526;19.072;2022-11-15T14:51:10;14.73;;;11.98;;
62110;SDS011;48102;47.526;19.072;2022-11-15T14:54:17;16.05;;;11.12;;
62110;SDS011;48102;47.526;19.072;2022-11-15T14:57:19;18.52;;;12.37;;
62110;SDS011;48102;47.526;19.072;2022-11-15T15:03:25;15.52;;;11.18;;
62110;SDS011;48102;47.526;19.072;2022-11-15T15:06:28;16.12;;;11.07;;
62110;SDS011;48102;47.526;19.072;2022-11-15T15:09:32;16.33;;;12.50;;
62110;SDS011;48102;47.526;19.072;2022-11-15T15:12:35;15.57;;;11.80;;
62110;SDS011;48102;47.526;19.072;2022-11-15T15:15:38;15.45;;;11.27;;
62110;SDS011;48102;47.526;19.072;2022-11-15T15:18:44;16.77;;;11.25;;
62110;SDS011;48102;47.526;19.072;2022-11-15T15:21:47;14.45;;;11.82;;
62110;SDS011;48102;47.526;19.072;2022-11-15T15:24:49;13.68;;;11.38;;
62110;SDS011;48102;47.526;19.072;2022-11-15T15:27:52;16.23;;;11.85;;
62110;SDS011;48102;47.526;19.072;2022-11-15T15:30:56;15.57;;;10.85;;
62110;SDS011;48102;47.526;19.072;2022-11-15T15:33:59;18.10;;;10.88;;
62110;SDS011;48102;47.526;19.072;2022-11-15T15:40:25;15.63;;;10.65;;
62110;SDS011;48102;47.526;19.072;2022-11-15T15:43:31;13.20;;;10.15;;
62110;SDS011;48102;47.526;19.072;2022-11-15T15:46:34;15.55;;;11.35;;
62110;SDS011;48102;47.526;19.072;2022-11-15T15:49:37;14.65;;;10.55;;
62110;SDS011;48102;47.526;19.072;2022-11-15T15:52:39;11.55;;;9.85;;
62110;SDS011;48102;47.526;19.072;2022-11-15T15:55:42;15.55;;;9.77;;
62110;SDS011;48102;47.526;19.072;2022-11-15T15:58:45;13.55;;;10.57;;
62110;SDS011;48102;47.526;19.072;2022-11-15T16:01:47;13.90;;;10.02;;
62110;SDS011;48102;47.526;19.072;2022-11-15T16:04:50;12.90;;;9.77;;
62110;SDS011;48102;47.526;19.072;2022-11-15T16:07:53;12.80;;;9.52;;
62110;SDS011;48102;47.526;19.072;2022-11-15T16:13:59;10.82;;;9.32;;
62110;SDS011;48102;47.526;19.072;2022-11-15T16:17:01;14.23;;;9.98;;
62110;SDS011;48102;47.526;19.072;2022-11-15T16:20:05;14.20;;;10.20;;
62110;SDS011;48102;47.526;19.072;2022-11-15T16:23:09;13.88;;;9.95;;
62110;SDS011;48102;47.526;19.072;2022-11-15T16:26:20;16.35;;;10.43;;
62110;SDS011;48102;47.526;19.072;2022-11-15T16:29:28;14.90;;;10.40;;
62110;SDS011;48102;47.526;19.072;2022-11-15T16:32:30;15.70;;;9.85;;
62110;SDS011;48102;47.526;19.072;2022-11-15T16:35:33;12.93;;;9.98;;
62110;SDS011;48102;47.526;19.072;2022-11-15T16:38:36;17.70;;;11.00;;
62110;SDS011;48102;47.526;19.072;2022-11-15T16:41:41;17.05;;;10.63;;
62110;SDS011;48102;47.526;19.072;2022-11-15T16:44:48;16.52;;;11.35;;
62110;SDS011;48102;47.526;19.072;2022-11-15T16:47:52;15.98;;;10.85;;
62110;SDS011;48102;47.526;19.072;2022-11-15T16:50:58;15.55;;;10.18;;
62110;SDS011;48102;47.526;19.072;2022-11-15T16:54:00;13.77;;;11.10;;
62110;SDS011;48102;47.526;19.072;2022-11-15T16:57:03;16.73;;;12.20;;
62110;SDS011;48102;47.526;19.072;2022-11-15T17:00:07;17.05;;;13.30;;
62110;SDS011;48102;47.526;19.072;2022-11-15T17:03:13;17.77;;;12.10;;
62110;SDS011;48102;47.526;19.072;2022-11-15T17:06:16;19.12;;;11.57;;
62110;SDS011;48102;47.526;19.072;2022-11-15T17:09:20;19.00;;;11.63;;
62110;SDS011;48102;47.526;19.072;2022-11-15T17:12:27;18.90;;;11.95;;
62110;SDS011;48102;47.526;19.072;2022-11-15T17:15:32;20.40;;;13.27;;
62110;SDS011;48102;47.526;19.072;2022-11-15T17:18:35;20.02;;;12.32;;
62110;SDS011;48102;47.526;19.072;2022-11-15T17:21:38;19.67;;;12.93;;
62110;SDS011;48102;47.526;19.072;2022-11-15T17:24:41;21.73;;;14.80;;
62110;SDS011;48102;47.526;19.072;2022-11-15T17:27:43;23.62;;;14.65;;
62110;SDS011;48102;47.526;19.072;2022-11-15T17:30:51;19.35;;;12.68;;
62110;SDS011;48102;47.526;19.072;2022-11-15T17:33:55;22.13;;;14.55;;
62110;SDS011;48102;47.526;19.072;2022-11-15T17:36:58;19.10;;;13.43;;
62110;SDS011;48102;47.526;19.072;2022-11-15T17:40:00;24.55;;;14.57;;
